| time (UTC) | temp F | wind direction | speed MPH | gust MPH | rain 1hr in | rain 24hr in | rain mn in | humidity % | barometer mb |
| 20260507193115 | 55 | 344 | 4.0 | 6.0 | 0.00 | 0.00 | 0.00 | 48 | 1009.3 |
| 20260507192612 | 55 | 332 | 6.0 | 9.0 | 0.00 | 0.00 | 0.00 | 45 | 1009.1 |
| 20260507192109 | 55 | 289 | 4.0 | 4.0 | 0.00 | 0.00 | 0.00 | 47 | 1009.0 |
| 20260507191604 | 54 | 55 | 1.0 | 2.0 | 0.00 | 0.00 | 0.00 | 46 | 1009.1 |
| 20260507191101 | 54 | 0 | 1.0 | 1.0 | 0.00 | 0.00 | 0.00 | 48 | 1009.2 |
| 20260507190558 | 53 | 342 | 1.0 | 2.0 | 0.00 | 0.00 | 0.00 | 47 | 1009.3 |
| 20260507190057 | 53 | 289 | 2.0 | 2.0 | 0.00 | 0.00 | 0.00 | 48 | 1009.5 |
| 20260507185555 | 52 | 337 | 1.0 | 2.0 | 0.00 | 0.00 | 0.00 | 49 | 1009.5 |
| 20260507185051 | 52 | 340 | 3.0 | 6.0 | 0.00 | 0.00 | 0.00 | 47 | 1009.4 |
| 20260507184550 | 53 | 334 | 7.0 | 9.0 | 0.00 | 0.00 | 0.00 | 47 | 1009.6 |
| 20260507184047 | 53 | 322 | 1.0 | 1.0 | 0.00 | 0.00 | 0.00 | 48 | 1009.7 |
| 20260507183542 | 53 | 185 | 2.0 | 2.0 | 0.00 | 0.00 | 0.00 | 50 | 1009.6 |
| 20260507183039 | 54 | 350 | 2.0 | 2.0 | 0.00 | 0.00 | 0.00 | 45 | 1009.5 |
| 20260507182536 | 53 | 318 | 2.0 | 3.0 | 0.00 | 0.00 | 0.00 | 49 | 1009.7 |
| 20260507182032 | 53 | 19 | 5.0 | 7.0 | 0.00 | 0.00 | 0.00 | 50 | 1009.7 |
| 20260507181530 | 52 | 267 | 2.0 | 3.0 | 0.00 | 0.00 | 0.00 | 51 | 1009.9 |
| 20260507181026 | 52 | 333 | 5.0 | 7.0 | 0.00 | 0.00 | 0.00 | 48 | 1010.1 |
| 20260507180522 | 53 | 336 | 4.0 | 4.0 | 0.00 | 0.00 | 0.00 | 50 | 1010.0 |
| 20260507180019 | 52 | 342 | 1.0 | 2.0 | 0.00 | 0.00 | 0.00 | 48 | 1009.8 |
| 20260507175515 | 53 | 296 | 3.0 | 3.0 | 0.00 | 0.00 | 0.00 | 52 | 1010.0 |
| 20260507175013 | 53 | 339 | 4.0 | 6.0 | 0.00 | 0.00 | 0.00 | 51 | 1009.8 |
| 20260507174510 | 51 | 337 | 1.0 | 1.0 | 0.00 | 0.00 | 0.00 | 52 | 1010.1 |
| 20260507174008 | 51 | 345 | 8.0 | 9.0 | 0.00 | 0.00 | 0.00 | 48 | 1010.2 |
| 20260507173504 | 51 | 344 | 7.0 | 9.0 | 0.00 | 0.00 | 0.00 | 49 | 1010.1 |
| 20260507173002 | 53 | 332 | 5.0 | 9.0 | 0.00 | 0.00 | 0.00 | 48 | 1010.0 |
| 20260507172457 | 54 | 329 | 3.0 | 4.0 | 0.00 | 0.00 | 0.00 | 46 | 1010.2 |
| 20260507171954 | 54 | 317 | 4.0 | 6.0 | 0.00 | 0.00 | 0.00 | 47 | 1010.2 |
| 20260507171450 | 53 | 38 | 2.0 | 3.0 | 0.00 | 0.00 | 0.00 | 49 | 1010.1 |
| 20260507170947 | 52 | 257 | 3.0 | 4.0 | 0.00 | 0.00 | 0.00 | 54 | 1010.3 |
| 20260507170444 | 50 | 5 | 0.0 | 0.0 | 0.00 | 0.00 | 0.00 | 50 | 1010.7 |
| 20260507165940 | 50 | 326 | 2.0 | 2.0 | 0.00 | 0.00 | 0.00 | 50 | 1010.7 |
| 20260507165437 | 50 | 305 | 4.0 | 4.0 | 0.00 | 0.00 | 0.00 | 51 | 1010.7 |
| 20260507164932 | 50 | 3 | 8.0 | 11.0 | 0.00 | 0.00 | 0.00 | 50 | 1010.6 |
| 20260507164429 | 51 | 288 | 6.0 | 8.0 | 0.00 | 0.00 | 0.00 | 48 | 1010.8 |
| 20260507163926 | 53 | 261 | 5.0 | 7.0 | 0.00 | 0.00 | 0.00 | 50 | 1010.7 |
| 20260507163424 | 51 | 305 | 3.0 | 3.0 | 0.00 | 0.00 | 0.00 | 54 | 1010.8 |
| 20260507162921 | 50 | 304 | 5.0 | 6.0 | 0.00 | 0.00 | 0.00 | 52 | 1010.8 |
| 20260507162416 | 50 | 334 | 4.0 | 6.0 | 0.00 | 0.00 | 0.00 | 51 | 1010.8 |
| 20260507161914 | 51 | 342 | 4.0 | 6.0 | 0.00 | 0.00 | 0.00 | 54 | 1010.9 |
| 20260507161409 | 50 | 330 | 4.0 | 4.0 | 0.00 | 0.00 | 0.00 | 50 | 1010.9 |
| 20260507160906 | 52 | 24 | 7.0 | 9.0 | 0.00 | 0.00 | 0.00 | 48 | 1011.1 |
| 20260507160402 | 52 | 334 | 2.0 | 3.0 | 0.00 | 0.00 | 0.00 | 49 | 1011.1 |
| 20260507155858 | 52 | 340 | 7.0 | 8.0 | 0.00 | 0.00 | 0.00 | 48 | 1011.6 |
| 20260507155354 | 50 | 317 | 3.0 | 3.0 | 0.00 | 0.00 | 0.00 | 50 | 1011.4 |
| 20260507154851 | 50 | 331 | 5.0 | 7.0 | 0.00 | 0.00 | 0.00 | 51 | 1011.5 |
| 20260507154348 | 51 | 335 | 2.0 | 2.0 | 0.00 | 0.00 | 0.00 | 49 | 1011.6 |
| 20260507153846 | 50 | 336 | 5.0 | 8.0 | 0.00 | 0.00 | 0.00 | 52 | 1011.7 |
| 20260507153342 | 51 | 347 | 3.0 | 3.0 | 0.00 | 0.00 | 0.00 | 49 | 1011.6 |
| 20260507152838 | 50 | 208 | 5.0 | 6.0 | 0.00 | 0.00 | 0.00 | 54 | 1011.5 |
| 20260507152335 | 50 | 273 | 7.0 | 8.0 | 0.00 | 0.00 | 0.00 | 52 | 1011.8 |
| 20260507151831 | 50 | 9 | 3.0 | 3.0 | 0.00 | 0.00 | 0.00 | 52 | 1011.8 |
| 20260507151327 | 49 | 337 | 4.0 | 4.0 | 0.00 | 0.00 | 0.00 | 56 | 1011.9 |
| 20260507150824 | 49 | 252 | 3.0 | 4.0 | 0.00 | 0.00 | 0.00 | 58 | 1011.7 |
| 20260507150320 | 48 | 316 | 2.0 | 2.0 | 0.00 | 0.00 | 0.00 | 57 | 1011.8 |
| 20260507145816 | 48 | 339 | 4.0 | 4.0 | 0.00 | 0.00 | 0.00 | 57 | 1011.8 |
| 20260507145313 | 48 | 322 | 2.0 | 3.0 | 0.00 | 0.00 | 0.00 | 55 | 1011.9 |
| 20260507144810 | 48 | 345 | 2.0 | 2.0 | 0.00 | 0.00 | 0.00 | 53 | 1012.2 |
| 20260507144307 | 48 | 325 | 4.0 | 6.0 | 0.00 | 0.00 | 0.00 | 58 | 1012.2 |
| 20260507143803 | 47 | 255 | 4.0 | 4.0 | 0.00 | 0.00 | 0.00 | 57 | 1012.1 |
| 20260507143301 | 49 | 349 | 4.0 | 4.0 | 0.00 | 0.00 | 0.00 | 53 | 1011.9 |
| 20260507142757 | 49 | 1 | 4.0 | 6.0 | 0.00 | 0.00 | 0.00 | 56 | 1012.2 |
| 20260507142254 | 48 | 330 | 2.0 | 3.0 | 0.00 | 0.00 | 0.00 | 56 | 1012.2 |
| 20260507141750 | 49 | 31 | 3.0 | 4.0 | 0.00 | 0.00 | 0.00 | 53 | 1012.2 |
| 20260507141248 | 48 | 259 | 3.0 | 3.0 | 0.00 | 0.00 | 0.00 | 61 | 1012.0 |
| 20260507140743 | 48 | 277 | 2.0 | 3.0 | 0.00 | 0.00 | 0.00 | 61 | 1011.9 |
| 20260507140241 | 50 | 346 | 2.0 | 2.0 | 0.00 | 0.00 | 0.00 | 61 | 1012.1 |
| 20260507135738 | 48 | 352 | 0.0 | 1.0 | 0.00 | 0.00 | 0.00 | 59 | 1012.2 |
| 20260507135236 | 48 | 351 | 1.0 | 2.0 | 0.00 | 0.00 | 0.00 | 59 | 1012.2 |
| 20260507134732 | 47 | 325 | 4.0 | 4.0 | 0.00 | 0.00 | 0.00 | 62 | 1012.1 |
| 20260507134228 | 47 | 358 | 1.0 | 2.0 | 0.00 | 0.00 | 0.00 | 63 | 1012.3 |
| 20260507133724 | 47 | 262 | 4.0 | 6.0 | 0.00 | 0.00 | 0.00 | 63 | 1012.1 |
| 20260507133221 | 47 | 357 | 1.0 | 1.0 | 0.00 | 0.00 | 0.00 | 62 | 1012.5 |
| 20260507132718 | 46 | 351 | 1.0 | 1.0 | 0.00 | 0.00 | 0.00 | 62 | 1012.5 |
| 20260507132215 | 47 | 347 | 2.0 | 3.0 | 0.00 | 0.00 | 0.00 | 62 | 1012.3 |
| 20260507131711 | 45 | 33 | 1.0 | 1.0 | 0.00 | 0.00 | 0.00 | 61 | 1012.5 |
| 20260507131209 | 45 | 336 | 7.0 | 9.0 | 0.00 | 0.00 | 0.00 | 68 | 1012.6 |
| 20260507130706 | 44 | 350 | 1.0 | 2.0 | 0.00 | 0.00 | 0.00 | 64 | 1012.8 |
| 20260507130203 | 44 | 347 | 6.0 | 7.0 | 0.00 | 0.00 | 0.00 | 66 | 1012.6 |
| 20260507125702 | 44 | 344 | 3.0 | 4.0 | 0.00 | 0.00 | 0.00 | 67 | 1012.7 |
| 20260507125159 | 44 | 343 | 3.0 | 4.0 | 0.00 | 0.00 | 0.00 | 69 | 1012.8 |
| 20260507124655 | 44 | 359 | 2.0 | 2.0 | 0.00 | 0.00 | 0.00 | 71 | 1012.7 |
| 20260507124153 | 43 | 355 | 3.0 | 3.0 | 0.00 | 0.00 | 0.00 | 73 | 1012.5 |
| 20260507123651 | 42 | 349 | 2.0 | 2.0 | 0.00 | 0.00 | 0.00 | 74 | 1012.6 |
| 20260507123148 | 43 | 345 | 2.0 | 2.0 | 0.00 | 0.00 | 0.00 | 74 | 1012.7 |
| 20260507122643 | 42 | 343 | 4.0 | 4.0 | 0.00 | 0.00 | 0.00 | 76 | 1012.6 |
| 20260507122139 | 41 | 330 | 2.0 | 2.0 | 0.00 | 0.00 | 0.00 | 78 | 1012.2 |
| 20260507121635 | 41 | 247 | 4.0 | 6.0 | 0.00 | 0.00 | 0.00 | 77 | 1012.5 |
| 20260507121132 | 41 | 327 | 3.0 | 3.0 | 0.00 | 0.00 | 0.00 | 78 | 1012.2 |
| 20260507120628 | 40 | 346 | 3.0 | 4.0 | 0.00 | 0.00 | 0.00 | 81 | 1012.1 |
| 20260507120125 | 40 | 331 | 1.0 | 1.0 | 0.00 | 0.00 | 0.00 | 85 | 1012.5 |
| 20260507115621 | 39 | 2 | 0.0 | 1.0 | 0.00 | 0.00 | 0.00 | 91 | 1012.3 |
| 20260507115117 | 38 | 355 | 0.0 | 0.0 | 0.00 | 0.00 | 0.00 | 92 | 1012.3 |
| 20260507114613 | 38 | 326 | 0.0 | 0.0 | 0.00 | 0.00 | 0.00 | 95 | 1012.3 |
| 20260507114110 | 37 | 326 | 0.0 | 0.0 | 0.00 | 0.00 | 0.00 | 96 | 1012.3 |
| 20260507113608 | 37 | 329 | 1.0 | 2.0 | 0.00 | 0.00 | 0.00 | 99 | 1012.3 |
| 20260507113104 | 37 | 339 | 0.0 | 1.0 | 0.00 | 0.00 | 0.00 | 99 | 1012.3 |
| 20260507112602 | 36 | 326 | 2.0 | 2.0 | 0.00 | 0.00 | 0.00 | 99 | 1012.1 |
| 20260507112058 | 36 | 327 | 1.0 | 2.0 | 0.00 | 0.00 | 0.00 | 99 | 1012.1 |
| 20260507111555 | 35 | 326 | 1.0 | 1.0 | 0.00 | 0.00 | 0.00 | 99 | 1011.9 |
| 20260507111052 | 35 | 327 | 0.0 | 0.0 | 0.00 | 0.00 | 0.00 | 99 | 1011.8 |
| 20260507110548 | 34 | 327 | 0.0 | 0.0 | 0.00 | 0.00 | 0.00 | 99 | 1011.8 |
| 20260507110045 | 34 | 326 | 0.0 | 0.0 | 0.00 | 0.00 | 0.00 | 99 | 1011.8 |
| 20260507105542 | 33 | 327 | 0.0 | 0.0 | 0.00 | 0.00 | 0.00 | 99 | 1011.8 |
| 20260507105038 | 33 | 327 | 1.0 | 1.0 | 0.00 | 0.00 | 0.00 | 99 | 1011.8 |
| 20260507104535 | 33 | 327 | 0.0 | 0.0 | 0.00 | 0.00 | 0.00 | 99 | 1011.7 |
| 20260507104032 | 33 | 327 | 0.0 | 0.0 | 0.00 | 0.00 | 0.00 | 99 | 1011.8 |
| 20260507103528 | 33 | 327 | 0.0 | 0.0 | 0.00 | 0.00 | 0.00 | 99 | 1011.6 |
| 20260507103025 | 33 | 326 | 0.0 | 0.0 | 0.00 | 0.00 | 0.00 | 98 | 1011.4 |
| 20260507102521 | 33 | 327 | 0.0 | 0.0 | 0.00 | 0.00 | 0.00 | 98 | 1011.5 |
| 20260507102017 | 33 | 331 | 1.0 | 1.0 | 0.00 | 0.00 | 0.00 | 98 | 1011.5 |
| 20260507101513 | 33 | 331 | 0.0 | 0.0 | 0.00 | 0.00 | 0.00 | 97 | 1011.2 |
| 20260507101010 | 34 | 331 | 0.0 | 0.0 | 0.00 | 0.00 | 0.00 | 97 | 1011.4 |
| 20260507100507 | 33 | 331 | 0.0 | 0.0 | 0.00 | 0.00 | 0.00 | 97 | 1011.5 |
| 20260507100005 | 34 | 331 | 0.0 | 0.0 | 0.00 | 0.00 | 0.00 | 97 | 1011.5 |
| 20260507095502 | 34 | 331 | 0.0 | 0.0 | 0.00 | 0.00 | 0.00 | 96 | 1011.4 |
| 20260507094954 | 35 | 331 | 0.0 | 0.0 | 0.00 | 0.00 | 0.00 | 95 | 1011.4 |
| 20260507094450 | 35 | 331 | 0.0 | 0.0 | 0.00 | 0.00 | 0.00 | 95 | 1011.4 |
| 20260507093947 | 36 | 331 | 0.0 | 1.0 | 0.00 | 0.00 | 0.00 | 93 | 1011.4 |
| 20260507093445 | 36 | 330 | 0.0 | 0.0 | 0.00 | 0.00 | 0.00 | 92 | 1011.3 |
| 20260507092943 | 37 | 292 | 1.0 | 1.0 | 0.00 | 0.00 | 0.00 | 93 | 1011.5 |
| 20260507092439 | 37 | 324 | 0.0 | 0.0 | 0.00 | 0.00 | 0.00 | 93 | 1011.3 |
| 20260507091936 | 37 | 324 | 0.0 | 0.0 | 0.00 | 0.00 | 0.00 | 92 | 1011.2 |
| 20260507091432 | 37 | 314 | 1.0 | 1.0 | 0.00 | 0.00 | 0.00 | 93 | 1011.2 |
| 20260507090928 | 37 | 314 | 1.0 | 2.0 | 0.00 | 0.00 | 0.00 | 92 | 1011.4 |
| 20260507090424 | 37 | 326 | 1.0 | 1.0 | 0.00 | 0.00 | 0.00 | 93 | 1011.3 |
| 20260507085915 | 37 | 315 | 1.0 | 2.0 | 0.00 | 0.00 | 0.00 | 95 | 1011.2 |
| 20260507085412 | 38 | 330 | 0.0 | 0.0 | 0.00 | 0.00 | 0.00 | 96 | 1011.4 |
| 20260507084910 | 38 | 322 | 1.0 | 1.0 | 0.00 | 0.00 | 0.00 | 97 | 1011.4 |
| 20260507084406 | 38 | 337 | 0.0 | 0.0 | 0.00 | 0.00 | 0.00 | 97 | 1011.5 |
| 20260507083904 | 38 | 336 | 0.0 | 0.0 | 0.00 | 0.00 | 0.00 | 97 | 1011.3 |
| 20260507083400 | 39 | 338 | 0.0 | 0.0 | 0.00 | 0.00 | 0.00 | 97 | 1011.3 |
| 20260507082856 | 39 | 341 | 0.0 | 1.0 | 0.00 | 0.00 | 0.00 | 97 | 1011.2 |
| 20260507082352 | 39 | 340 | 0.0 | 1.0 | 0.00 | 0.00 | 0.00 | 98 | 1011.2 |
| 20260507081849 | 39 | 332 | 0.0 | 0.0 | 0.00 | 0.00 | 0.00 | 98 | 1011.3 |
| 20260507081345 | 39 | 356 | 0.0 | 0.0 | 0.00 | 0.00 | 0.00 | 98 | 1011.2 |
| 20260507080842 | 39 | 356 | 0.0 | 0.0 | 0.00 | 0.00 | 0.00 | 98 | 1011.5 |
| 20260507080338 | 39 | 356 | 0.0 | 0.0 | 0.00 | 0.00 | 0.00 | 98 | 1011.4 |
| 20260507075834 | 39 | 358 | 0.0 | 0.0 | 0.00 | 0.00 | 0.00 | 98 | 1011.4 |
| 20260507075330 | 39 | 358 | 0.0 | 0.0 | 0.00 | 0.00 | 0.00 | 98 | 1011.3 |
| 20260507074826 | 39 | 358 | 0.0 | 0.0 | 0.00 | 0.00 | 0.00 | 98 | 1011.5 |
| 20260507074324 | 39 | 358 | 0.0 | 0.0 | 0.00 | 0.00 | 0.00 | 98 | 1011.6 |
| 20260507073821 | 39 | 358 | 0.0 | 0.0 | 0.00 | 0.00 | 0.00 | 98 | 1011.6 |
| 20260507073318 | 39 | 358 | 0.0 | 0.0 | 0.00 | 0.00 | 0.00 | 98 | 1011.5 |
| 20260507072815 | 39 | 358 | 0.0 | 0.0 | 0.00 | 0.00 | 0.00 | 98 | 1011.5 |
| 20260507072312 | 39 | 358 | 0.0 | 0.0 | 0.00 | 0.00 | 0.00 | 97 | 1011.7 |
| 20260507071810 | 39 | 358 | 0.0 | 0.0 | 0.00 | 0.00 | 0.00 | 97 | 1011.5 |
| 20260507071306 | 39 | 358 | 0.0 | 0.0 | 0.00 | 0.00 | 0.00 | 97 | 1011.7 |
| 20260507070803 | 39 | 358 | 1.0 | 1.0 | 0.00 | 0.00 | 0.00 | 96 | 1011.5 |
| 20260507070300 | 39 | 359 | 0.0 | 0.0 | 0.00 | 0.00 | 0.00 | 96 | 1011.4 |
| 20260507065757 | 39 | 351 | 0.0 | 0.0 | 0.00 | 0.00 | 0.00 | 96 | 1011.5 |
| 20260507065253 | 39 | 331 | 0.0 | 0.0 | 0.00 | 0.00 | 0.00 | 94 | 1011.6 |
| 20260507064750 | 40 | 343 | 0.0 | 1.0 | 0.00 | 0.00 | 0.00 | 93 | 1011.6 |
| 20260507064249 | 40 | 340 | 0.0 | 0.0 | 0.00 | 0.00 | 0.00 | 92 | 1011.7 |
| 20260507063747 | 41 | 332 | 0.0 | 0.0 | 0.00 | 0.00 | 0.00 | 92 | 1011.7 |
| 20260507063243 | 41 | 282 | 2.0 | 3.0 | 0.00 | 0.00 | 0.00 | 91 | 1011.7 |
| 20260507062740 | 41 | 332 | 2.0 | 2.0 | 0.00 | 0.00 | 0.00 | 94 | 1011.6 |
| 20260507062237 | 41 | 300 | 1.0 | 2.0 | 0.00 | 0.00 | 0.00 | 94 | 1011.6 |
| 20260507061735 | 41 | 313 | 1.0 | 2.0 | 0.00 | 0.00 | 0.00 | 94 | 1011.7 |
| 20260507061233 | 42 | 304 | 2.0 | 2.0 | 0.00 | 0.00 | 0.00 | 94 | 1011.6 |
| 20260507060731 | 42 | 341 | 2.0 | 3.0 | 0.00 | 0.00 | 0.00 | 95 | 1011.6 |
| 20260507060227 | 42 | 324 | 2.0 | 2.0 | 0.00 | 0.00 | 0.00 | 97 | 1011.7 |
| 20260507055723 | 42 | 264 | 2.0 | 2.0 | 0.00 | 0.00 | 0.00 | 99 | 1011.5 |
| 20260507055219 | 42 | 282 | 3.0 | 3.0 | 0.00 | 0.00 | 0.00 | 99 | 1011.3 |
| 20260507054715 | 42 | 315 | 1.0 | 1.0 | 0.00 | 0.00 | 0.00 | 99 | 1011.3 |
| 20260507054213 | 42 | 294 | 2.0 | 2.0 | 0.00 | 0.00 | 0.00 | 99 | 1011.2 |
| 20260507053710 | 42 | 313 | 1.0 | 2.0 | 0.00 | 0.00 | 0.00 | 99 | 1011.1 |
| 20260507053208 | 42 | 289 | 2.0 | 2.0 | 0.00 | 0.00 | 0.00 | 99 | 1011.2 |
| 20260507052706 | 42 | 335 | 1.0 | 2.0 | 0.00 | 0.00 | 0.00 | 99 | 1011.4 |
| 20260507052202 | 42 | 319 | 2.0 | 3.0 | 0.00 | 0.00 | 0.00 | 99 | 1011.3 |
| 20260507051700 | 41 | 331 | 4.0 | 4.0 | 0.00 | 0.00 | 0.00 | 99 | 1011.1 |
| 20260507051156 | 41 | 326 | 0.0 | 0.0 | 0.00 | 0.00 | 0.00 | 99 | 1011.1 |
| 20260507050653 | 41 | 333 | 1.0 | 1.0 | 0.00 | 0.00 | 0.00 | 99 | 1011.3 |
| 20260507050150 | 41 | 333 | 1.0 | 2.0 | 0.00 | 0.00 | 0.00 | 99 | 1011.3 |
| 20260507045647 | 41 | 328 | 0.0 | 0.0 | 0.00 | 0.00 | 0.00 | 99 | 1011.0 |
| 20260507045143 | 41 | 334 | 1.0 | 1.0 | 0.00 | 0.00 | 0.00 | 99 | 1011.1 |
| 20260507044640 | 41 | 335 | 1.0 | 1.0 | 0.00 | 0.00 | 0.00 | 99 | 1011.3 |
| 20260507044137 | 41 | 334 | 0.0 | 0.0 | 0.00 | 0.00 | 0.00 | 99 | 1011.4 |
| 20260507043633 | 41 | 335 | 0.0 | 0.0 | 0.00 | 0.00 | 0.00 | 99 | 1011.1 |
| 20260507043130 | 41 | 335 | 0.0 | 0.0 | 0.00 | 0.00 | 0.00 | 99 | 1011.2 |
| 20260507042626 | 41 | 335 | 0.0 | 0.0 | 0.00 | 0.00 | 0.00 | 99 | 1011.3 |
| 20260507042121 | 41 | 338 | 0.0 | 0.0 | 0.00 | 0.00 | 0.00 | 99 | 1011.2 |
| 20260507041618 | 41 | 338 | 0.0 | 0.0 | 0.00 | 0.00 | 0.00 | 99 | 1011.2 |
| 20260507041115 | 41 | 341 | 1.0 | 1.0 | 0.00 | 0.00 | 0.00 | 99 | 1011.3 |
| 20260507040613 | 41 | 329 | 0.0 | 0.0 | 0.00 | 0.00 | 0.00 | 99 | 1011.3 |
| 20260507040109 | 41 | 329 | 0.0 | 0.0 | 0.00 | 0.00 | 0.00 | 99 | 1011.3 |
| 20260507035604 | 41 | 329 | 0.0 | 0.0 | 0.00 | 0.50 | 0.50 | 99 | 1011.4 |
| 20260507035100 | 41 | 347 | 0.0 | 0.0 | 0.00 | 0.50 | 0.50 | 99 | 1011.7 |
| 20260507034557 | 42 | 347 | 0.0 | 0.0 | 0.00 | 0.50 | 0.50 | 99 | 1011.5 |
| 20260507034055 | 42 | 347 | 0.0 | 0.0 | 0.00 | 0.50 | 0.50 | 99 | 1011.5 |
| 20260507033553 | 42 | 347 | 0.0 | 0.0 | 0.00 | 0.50 | 0.50 | 99 | 1011.5 |
| 20260507033050 | 42 | 347 | 0.0 | 0.0 | 0.00 | 0.50 | 0.50 | 99 | 1011.3 |
| 20260507032547 | 42 | 347 | 0.0 | 0.0 | 0.00 | 0.50 | 0.50 | 99 | 1011.4 |
| 20260507032043 | 42 | 347 | 0.0 | 0.0 | 0.00 | 0.50 | 0.50 | 99 | 1011.2 |
| 20260507031540 | 42 | 347 | 0.0 | 0.0 | 0.00 | 0.50 | 0.50 | 99 | 1011.4 |
| 20260507031037 | 42 | 347 | 0.0 | 0.0 | 0.00 | 0.50 | 0.50 | 99 | 1011.2 |
| 20260507030534 | 42 | 347 | 0.0 | 0.0 | 0.00 | 0.50 | 0.50 | 99 | 1011.2 |
| 20260507030032 | 42 | 347 | 0.0 | 0.0 | 0.00 | 0.50 | 0.50 | 99 | 1011.1 |
| 20260507025528 | 42 | 347 | 0.0 | 0.0 | 0.00 | 0.50 | 0.50 | 99 | 1011.0 |
| 20260507025026 | 42 | 347 | 0.0 | 0.0 | 0.00 | 0.50 | 0.50 | 99 | 1011.2 |
| 20260507024523 | 42 | 347 | 0.0 | 0.0 | 0.00 | 0.50 | 0.50 | 99 | 1011.5 |
| 20260507024020 | 42 | 347 | 0.0 | 0.0 | 0.00 | 0.50 | 0.50 | 99 | 1011.7 |
| 20260507023516 | 42 | 347 | 0.0 | 0.0 | 0.00 | 0.50 | 0.50 | 99 | 1011.4 |
| 20260507023014 | 42 | 347 | 0.0 | 0.0 | 0.00 | 0.50 | 0.50 | 99 | 1011.6 |
| 20260507022510 | 43 | 347 | 0.0 | 0.0 | 0.00 | 0.50 | 0.50 | 99 | 1011.5 |
| 20260507022000 | 43 | 348 | 0.0 | 0.0 | 0.00 | 0.50 | 0.50 | 99 | 1011.7 |
| 20260507021456 | 43 | 348 | 0.0 | 0.0 | 0.00 | 0.50 | 0.50 | 99 | 1011.2 |
| 20260507020953 | 43 | 348 | 0.0 | 0.0 | 0.00 | 0.50 | 0.50 | 99 | 1011.4 |
| 20260507020450 | 43 | 348 | 0.0 | 0.0 | 0.00 | 0.50 | 0.50 | 99 | 1011.8 |
| 20260507015947 | 44 | 348 | 0.0 | 0.0 | 0.00 | 0.50 | 0.50 | 99 | 1012.0 |
| 20260507015446 | 44 | 347 | 0.0 | 0.0 | 0.00 | 0.50 | 0.50 | 98 | 1012.1 |
| 20260507014942 | 44 | 348 | 0.0 | 0.0 | 0.00 | 0.50 | 0.50 | 98 | 1011.5 |
| 20260507014439 | 44 | 348 | 0.0 | 0.0 | 0.00 | 0.50 | 0.50 | 98 | 1011.8 |
| 20260507013935 | 44 | 348 | 0.0 | 0.0 | 0.00 | 0.50 | 0.50 | 98 | 1012.1 |
| 20260507013432 | 44 | 348 | 0.0 | 0.0 | 0.00 | 0.50 | 0.50 | 98 | 1012.1 |
| 20260507012929 | 44 | 348 | 0.0 | 0.0 | 0.00 | 0.50 | 0.50 | 98 | 1012.2 |
| 20260507012426 | 44 | 348 | 0.0 | 0.0 | 0.00 | 0.50 | 0.50 | 98 | 1011.9 |
| 20260507011922 | 44 | 348 | 0.0 | 0.0 | 0.00 | 0.50 | 0.50 | 98 | 1011.8 |
| 20260507011419 | 44 | 348 | 0.0 | 0.0 | 0.00 | 0.50 | 0.50 | 98 | 1012.0 |
| 20260507010914 | 44 | 348 | 0.0 | 0.0 | 0.00 | 0.50 | 0.50 | 98 | 1011.8 |
| 20260507010409 | 44 | 348 | 0.0 | 0.0 | 0.00 | 0.50 | 0.50 | 98 | 1011.7 |
| 20260507005907 | 44 | 348 | 0.0 | 0.0 | 0.00 | 0.50 | 0.50 | 98 | 1011.7 |
| 20260507005403 | 44 | 348 | 0.0 | 0.0 | 0.00 | 0.50 | 0.50 | 97 | 1011.6 |
| 20260507004900 | 44 | 348 | 0.0 | 0.0 | 0.00 | 0.50 | 0.50 | 97 | 1011.3 |
| 20260507004357 | 44 | 348 | 1.0 | 1.0 | 0.00 | 0.50 | 0.50 | 97 | 1011.7 |
| 20260507003854 | 44 | 332 | 0.0 | 1.0 | 0.00 | 0.50 | 0.50 | 97 | 1011.7 |
| 20260507003349 | 44 | 343 | 1.0 | 2.0 | 0.00 | 0.50 | 0.50 | 97 | 1011.7 |
| 20260507002845 | 44 | 349 | 0.0 | 0.0 | 0.00 | 0.50 | 0.50 | 97 | 1011.2 |
| 20260507002341 | 44 | 334 | 0.0 | 1.0 | 0.00 | 0.50 | 0.50 | 96 | 1011.4 |
| 20260507001838 | 44 | 304 | 2.0 | 2.0 | 0.00 | 0.50 | 0.50 | 96 | 1011.3 |
| 20260507001335 | 44 | 345 | 1.0 | 1.0 | 0.00 | 0.50 | 0.50 | 97 | 1011.2 |
| 20260507000832 | 44 | 342 | 0.0 | 1.0 | 0.00 | 0.50 | 0.50 | 97 | 1011.0 |
| 20260507000328 | 44 | 320 | 2.0 | 3.0 | 0.00 | 0.50 | 0.50 | 97 | 1010.9 |
| 20260506235824 | 44 | 330 | 1.0 | 1.0 | 0.00 | 0.50 | 0.50 | 97 | 1010.8 |
| 20260506235320 | 44 | 15 | 0.0 | 1.0 | 0.00 | 0.50 | 0.50 | 97 | 1010.7 |
| 20260506234817 | 44 | 344 | 1.0 | 1.0 | 0.00 | 0.50 | 0.50 | 97 | 1010.8 |
| 20260506234315 | 44 | 55 | 0.0 | 1.0 | 0.00 | 0.50 | 0.50 | 97 | 1010.7 |
| 20260506233812 | 44 | 331 | 2.0 | 2.0 | 0.00 | 0.50 | 0.50 | 97 | 1010.7 |
| 20260506233308 | 44 | 307 | 1.0 | 2.0 | 0.00 | 0.50 | 0.50 | 98 | 1010.8 |
| 20260506232805 | 44 | 5 | 0.0 | 0.0 | 0.00 | 0.50 | 0.50 | 98 | 1010.7 |
| 20260506232300 | 44 | 357 | 0.0 | 0.0 | 0.00 | 0.50 | 0.50 | 98 | 1010.6 |
| 20260506231757 | 44 | 336 | 0.0 | 0.0 | 0.00 | 0.50 | 0.50 | 98 | 1010.4 |
| 20260506231255 | 44 | 267 | 2.0 | 3.0 | 0.00 | 0.50 | 0.50 | 98 | 1010.7 |
| 20260506230752 | 44 | 346 | 0.0 | 0.0 | 0.00 | 0.50 | 0.50 | 98 | 1010.7 |
| 20260506230249 | 44 | 303 | 4.0 | 4.0 | 0.00 | 0.50 | 0.50 | 98 | 1010.6 |
| 20260506225745 | 44 | 342 | 5.0 | 6.0 | 0.00 | 0.50 | 0.50 | 98 | 1010.7 |
| 20260506225242 | 44 | 7 | 0.0 | 0.0 | 0.00 | 0.50 | 0.50 | 99 | 1010.8 |
| 20260506224738 | 44 | 353 | 1.0 | 1.0 | 0.00 | 0.50 | 0.50 | 99 | 1010.8 |
| 20260506224236 | 44 | 287 | 3.0 | 3.0 | 0.00 | 0.50 | 0.50 | 99 | 1010.4 |
| 20260506223732 | 44 | 33 | 1.0 | 1.0 | 0.00 | 0.50 | 0.50 | 99 | 1010.6 |
| 20260506223227 | 44 | 280 | 5.0 | 7.0 | 0.00 | 0.50 | 0.50 | 99 | 1010.6 |
| 20260506222725 | 44 | 293 | 3.0 | 3.0 | 0.00 | 0.50 | 0.50 | 99 | 1010.4 |
| 20260506222220 | 45 | 270 | 4.0 | 4.0 | 0.00 | 0.50 | 0.50 | 98 | 1010.1 |
| 20260506221718 | 45 | 338 | 1.0 | 1.0 | 0.00 | 0.50 | 0.50 | 98 | 1010.1 |
| 20260506221216 | 45 | 342 | 5.0 | 7.0 | 0.00 | 0.50 | 0.50 | 98 | 1010.2 |
| 20260506220713 | 45 | 283 | 2.0 | 2.0 | 0.00 | 0.50 | 0.50 | 98 | 1010.0 |
| 20260506220208 | 45 | 299 | 2.0 | 2.0 | 0.00 | 0.50 | 0.50 | 98 | 1009.9 |
| 20260506215705 | 45 | 19 | 2.0 | 4.0 | 0.00 | 0.50 | 0.50 | 98 | 1009.9 |
| 20260506215200 | 45 | 345 | 1.0 | 2.0 | 0.00 | 0.50 | 0.50 | 97 | 1009.8 |
| 20260506214657 | 45 | 345 | 1.0 | 2.0 | 0.00 | 0.50 | 0.50 | 97 | 1009.7 |
| 20260506214154 | 45 | 331 | 1.0 | 1.0 | 0.00 | 0.50 | 0.50 | 97 | 1009.5 |
| 20260506213653 | 45 | 343 | 1.0 | 2.0 | 0.07 | 0.50 | 0.50 | 97 | 1009.5 |
| 20260506213150 | 45 | 347 | 3.0 | 4.0 | 0.07 | 0.50 | 0.50 | 97 | 1009.5 |
| 20260506212647 | 45 | 350 | 0.0 | 0.0 | 0.00 | 0.49 | 0.49 | 97 | 1009.3 |
| 20260506212141 | 46 | 317 | 3.0 | 3.0 | 0.05 | 0.49 | 0.49 | 97 | 1009.5 |
| 20260506211638 | 46 | 31 | 3.0 | 3.0 | 0.05 | 0.49 | 0.49 | 97 | 1009.4 |
| 20260506211134 | 46 | 336 | 1.0 | 1.0 | 0.00 | 0.48 | 0.48 | 97 | 1009.3 |
| 20260506210627 | 46 | 327 | 5.0 | 7.0 | 0.00 | 0.48 | 0.48 | 97 | 1009.2 |
| 20260506210123 | 47 | 314 | 3.0 | 4.0 | 0.00 | 0.48 | 0.48 | 97 | 1008.9 |
| 20260506205619 | 47 | 344 | 4.0 | 4.0 | 0.00 | 0.48 | 0.48 | 97 | 1008.9 |
| 20260506205114 | 47 | 325 | 4.0 | 6.0 | 0.00 | 0.48 | 0.48 | 97 | 1008.7 |
| 20260506204613 | 48 | 304 | 5.0 | 7.0 | 0.00 | 0.48 | 0.48 | 97 | 1008.4 |
| 20260506204109 | 48 | 342 | 3.0 | 4.0 | 0.00 | 0.48 | 0.48 | 97 | 1008.4 |
| 20260506203608 | 48 | 336 | 0.0 | 1.0 | 0.00 | 0.48 | 0.48 | 97 | 1008.3 |
| 20260506203104 | 48 | 336 | 2.0 | 3.0 | 0.00 | 0.48 | 0.48 | 97 | 1008.2 |
| 20260506202602 | 48 | 352 | 0.0 | 0.0 | 0.07 | 0.48 | 0.48 | 97 | 1007.9 |
| 20260506202058 | 48 | 330 | 1.0 | 1.0 | 0.07 | 0.48 | 0.48 | 97 | 1008.0 |
| 20260506201555 | 48 | 337 | 4.0 | 6.0 | 0.12 | 0.48 | 0.48 | 97 | 1007.8 |
| 20260506201052 | 49 | 315 | 2.0 | 3.0 | 0.12 | 0.47 | 0.47 | 97 | 1007.7 |
| 20260506200548 | 49 | 305 | 2.0 | 3.0 | 0.12 | 0.46 | 0.46 | 97 | 1007.6 |
| 20260506200045 | 50 | 265 | 3.0 | 3.0 | 0.12 | 0.45 | 0.45 | 96 | 1007.7 |
| 20260506195541 | 51 | 334 | 6.0 | 9.0 | 0.07 | 0.44 | 0.44 | 96 | 1007.5 |
| 20260506195038 | 56 | 334 | 14.0 | 17.0 | 0.07 | 0.43 | 0.43 | 96 | 1007.4 |
| 20260506194536 | 56 | 328 | 3.0 | 3.0 | 0.07 | 0.43 | 0.43 | 98 | 1007.2 |
| 20260506194032 | 56 | 345 | 3.0 | 4.0 | 0.00 | 0.42 | 0.42 | 97 | 1007.0 |
| 20260506193530 | 56 | 323 | 1.0 | 1.0 | 0.00 | 0.42 | 0.42 | 97 | 1007.2 |